sensor_id;sensor_type;location;lat;lon;timestamp;P1;durP1;ratioP1;P2;durP2;ratioP2
40717;SDS011;26405;51.850;-2.246;2023-02-12T00:01:28;21.33;;;8.30;;
40717;SDS011;26405;51.850;-2.246;2023-02-12T00:03:53;20.67;;;8.57;;
40717;SDS011;26405;51.850;-2.246;2023-02-12T00:06:19;19.95;;;9.32;;
40717;SDS011;26405;51.850;-2.246;2023-02-12T00:08:47;19.63;;;8.68;;
40717;SDS011;26405;51.850;-2.246;2023-02-12T00:11:13;20.15;;;9.10;;
40717;SDS011;26405;51.850;-2.246;2023-02-12T00:13:39;19.05;;;8.70;;
40717;SDS011;26405;51.850;-2.246;2023-02-12T00:16:06;18.05;;;8.25;;
40717;SDS011;26405;51.850;-2.246;2023-02-12T00:18:31;20.60;;;8.38;;
40717;SDS011;26405;51.850;-2.246;2023-02-12T00:20:57;19.48;;;8.50;;
40717;SDS011;26405;51.850;-2.246;2023-02-12T00:23:23;19.08;;;8.02;;
40717;SDS011;26405;51.850;-2.246;2023-02-12T00:25:48;19.05;;;8.15;;
40717;SDS011;26405;51.850;-2.246;2023-02-12T00:28:13;21.73;;;8.90;;
40717;SDS011;26405;51.850;-2.246;2023-02-12T00:30:38;20.70;;;8.60;;
40717;SDS011;26405;51.850;-2.246;2023-02-12T00:33:04;18.80;;;7.82;;
40717;SDS011;26405;51.850;-2.246;2023-02-12T00:35:29;19.67;;;8.43;;
40717;SDS011;26405;51.850;-2.246;2023-02-12T00:37:54;20.30;;;8.70;;
40717;SDS011;26405;51.850;-2.246;2023-02-12T00:40:19;18.85;;;8.00;;
40717;SDS011;26405;51.850;-2.246;2023-02-12T00:42:45;20.40;;;9.10;;
40717;SDS011;26405;51.850;-2.246;2023-02-12T00:45:10;22.05;;;9.35;;
40717;SDS011;26405;51.850;-2.246;2023-02-12T00:47:35;21.67;;;9.50;;
40717;SDS011;26405;51.850;-2.246;2023-02-12T00:50:00;20.25;;;9.65;;
40717;SDS011;26405;51.850;-2.246;2023-02-12T00:52:26;21.08;;;9.57;;
40717;SDS011;26405;51.850;-2.246;2023-02-12T00:54:51;21.40;;;9.48;;
40717;SDS011;26405;51.850;-2.246;2023-02-12T00:57:16;21.70;;;9.57;;
40717;SDS011;26405;51.850;-2.246;2023-02-12T00:59:41;20.52;;;9.23;;
40717;SDS011;26405;51.850;-2.246;2023-02-12T01:02:07;20.25;;;8.57;;
40717;SDS011;26405;51.850;-2.246;2023-02-12T01:04:32;19.60;;;8.75;;
40717;SDS011;26405;51.850;-2.246;2023-02-12T01:06:57;20.25;;;9.15;;
40717;SDS011;26405;51.850;-2.246;2023-02-12T01:09:23;21.35;;;9.18;;
40717;SDS011;26405;51.850;-2.246;2023-02-12T01:11:48;20.58;;;9.52;;
40717;SDS011;26405;51.850;-2.246;2023-02-12T01:14:13;22.65;;;9.98;;
40717;SDS011;26405;51.850;-2.246;2023-02-12T01:16:38;20.42;;;9.48;;
40717;SDS011;26405;51.850;-2.246;2023-02-12T01:19:04;22.60;;;10.20;;
40717;SDS011;26405;51.850;-2.246;2023-02-12T01:21:30;22.77;;;10.95;;
40717;SDS011;26405;51.850;-2.246;2023-02-12T01:23:56;23.58;;;12.10;;
40717;SDS011;26405;51.850;-2.246;2023-02-12T01:26:22;24.98;;;11.73;;
40717;SDS011;26405;51.850;-2.246;2023-02-12T01:28:49;22.90;;;10.60;;
40717;SDS011;26405;51.850;-2.246;2023-02-12T01:33:39;24.85;;;11.18;;
40717;SDS011;26405;51.850;-2.246;2023-02-12T01:36:05;24.08;;;11.30;;
40717;SDS011;26405;51.850;-2.246;2023-02-12T01:38:30;22.83;;;11.23;;
40717;SDS011;26405;51.850;-2.246;2023-02-12T01:41:03;25.85;;;12.43;;
40717;SDS011;26405;51.850;-2.246;2023-02-12T01:43:28;23.20;;;12.00;;
40717;SDS011;26405;51.850;-2.246;2023-02-12T01:45:53;25.35;;;13.07;;
40717;SDS011;26405;51.850;-2.246;2023-02-12T01:48:19;25.02;;;12.02;;
40717;SDS011;26405;51.850;-2.246;2023-02-12T01:50:46;27.98;;;13.10;;
40717;SDS011;26405;51.850;-2.246;2023-02-12T01:53:12;22.85;;;11.13;;
40717;SDS011;26405;51.850;-2.246;2023-02-12T01:55:44;22.75;;;10.75;;
40717;SDS011;26405;51.850;-2.246;2023-02-12T01:58:09;23.13;;;11.23;;
40717;SDS011;26405;51.850;-2.246;2023-02-12T02:00:34;24.30;;;11.57;;
40717;SDS011;26405;51.850;-2.246;2023-02-12T02:03:00;23.40;;;11.35;;
40717;SDS011;26405;51.850;-2.246;2023-02-12T02:05:40;21.90;;;10.32;;
40717;SDS011;26405;51.850;-2.246;2023-02-12T02:08:06;22.17;;;11.15;;
40717;SDS011;26405;51.850;-2.246;2023-02-12T02:10:32;23.42;;;10.35;;
40717;SDS011;26405;51.850;-2.246;2023-02-12T02:12:58;21.10;;;10.25;;
40717;SDS011;26405;51.850;-2.246;2023-02-12T02:15:43;26.10;;;11.50;;
40717;SDS011;26405;51.850;-2.246;2023-02-12T02:25:59;20.65;;;8.45;;
40717;SDS011;26405;51.850;-2.246;2023-02-12T02:31:17;18.75;;;7.20;;
40717;SDS011;26405;51.850;-2.246;2023-02-12T02:41:07;14.98;;;6.20;;
40717;SDS011;26405;51.850;-2.246;2023-02-12T02:43:37;15.40;;;6.07;;
40717;SDS011;26405;51.850;-2.246;2023-02-12T02:46:14;13.98;;;5.70;;
40717;SDS011;26405;51.850;-2.246;2023-02-12T02:48:43;14.18;;;5.60;;
40717;SDS011;26405;51.850;-2.246;2023-02-12T02:51:12;12.75;;;5.20;;
40717;SDS011;26405;51.850;-2.246;2023-02-12T02:53:41;13.05;;;4.97;;
40717;SDS011;26405;51.850;-2.246;2023-02-12T02:56:10;11.40;;;4.70;;
40717;SDS011;26405;51.850;-2.246;2023-02-12T02:58:38;14.00;;;5.10;;
40717;SDS011;26405;51.850;-2.246;2023-02-12T03:01:09;12.50;;;4.65;;
40717;SDS011;26405;51.850;-2.246;2023-02-12T03:06:07;12.63;;;4.85;;
40717;SDS011;26405;51.850;-2.246;2023-02-12T03:08:38;8.55;;;4.15;;
40717;SDS011;26405;51.850;-2.246;2023-02-12T03:11:08;10.55;;;4.18;;
40717;SDS011;26405;51.850;-2.246;2023-02-12T03:16:10;10.82;;;4.50;;
40717;SDS011;26405;51.850;-2.246;2023-02-12T03:18:40;10.57;;;4.10;;
40717;SDS011;26405;51.850;-2.246;2023-02-12T03:21:11;11.07;;;4.20;;
40717;SDS011;26405;51.850;-2.246;2023-02-12T03:23:39;10.55;;;4.28;;
40717;SDS011;26405;51.850;-2.246;2023-02-12T03:26:14;9.10;;;4.22;;
40717;SDS011;26405;51.850;-2.246;2023-02-12T03:28:42;9.63;;;4.07;;
40717;SDS011;26405;51.850;-2.246;2023-02-12T03:36:39;6.85;;;3.88;;
40717;SDS011;26405;51.850;-2.246;2023-02-12T03:41:57;8.20;;;3.72;;
40717;SDS011;26405;51.850;-2.246;2023-02-12T03:44:32;10.35;;;4.03;;
40717;SDS011;26405;51.850;-2.246;2023-02-12T03:49:35;7.57;;;3.58;;
40717;SDS011;26405;51.850;-2.246;2023-02-12T03:52:03;7.20;;;3.47;;
40717;SDS011;26405;51.850;-2.246;2023-02-12T03:54:28;12.02;;;4.00;;
40717;SDS011;26405;51.850;-2.246;2023-02-12T03:57:37;9.82;;;3.60;;
40717;SDS011;26405;51.850;-2.246;2023-02-12T03:59:42;7.65;;;3.40;;
40717;SDS011;26405;51.850;-2.246;2023-02-12T04:02:08;8.02;;;3.45;;
40717;SDS011;26405;51.850;-2.246;2023-02-12T04:04:33;7.90;;;3.35;;
40717;SDS011;26405;51.850;-2.246;2023-02-12T04:06:58;8.25;;;3.30;;
40717;SDS011;26405;51.850;-2.246;2023-02-12T04:09:25;7.68;;;2.97;;
40717;SDS011;26405;51.850;-2.246;2023-02-12T04:14:30;6.60;;;2.60;;
40717;SDS011;26405;51.850;-2.246;2023-02-12T04:22:26;7.60;;;2.40;;
40717;SDS011;26405;51.850;-2.246;2023-02-12T04:25:06;4.53;;;2.70;;
40717;SDS011;26405;51.850;-2.246;2023-02-12T04:32:29;8.95;;;2.83;;
40717;SDS011;26405;51.850;-2.246;2023-02-12T04:35:45;4.90;;;2.63;;
40717;SDS011;26405;51.850;-2.246;2023-02-12T04:37:47;7.32;;;2.80;;
40717;SDS011;26405;51.850;-2.246;2023-02-12T04:40:14;6.68;;;2.72;;
40717;SDS011;26405;51.850;-2.246;2023-02-12T04:42:44;7.45;;;2.83;;
40717;SDS011;26405;51.850;-2.246;2023-02-12T04:45:10;4.85;;;2.58;;
40717;SDS011;26405;51.850;-2.246;2023-02-12T04:47:36;6.83;;;2.67;;
40717;SDS011;26405;51.850;-2.246;2023-02-12T04:50:01;6.30;;;2.67;;
40717;SDS011;26405;51.850;-2.246;2023-02-12T04:52:26;6.43;;;2.90;;
40717;SDS011;26405;51.850;-2.246;2023-02-12T04:54:51;5.60;;;2.67;;
40717;SDS011;26405;51.850;-2.246;2023-02-12T04:57:16;7.60;;;2.50;;
40717;SDS011;26405;51.850;-2.246;2023-02-12T04:59:42;5.35;;;2.47;;
40717;SDS011;26405;51.850;-2.246;2023-02-12T05:02:07;5.97;;;2.78;;
40717;SDS011;26405;51.850;-2.246;2023-02-12T05:04:32;10.45;;;2.88;;
40717;SDS011;26405;51.850;-2.246;2023-02-12T05:06:57;4.15;;;2.60;;
40717;SDS011;26405;51.850;-2.246;2023-02-12T05:09:23;5.22;;;2.65;;
40717;SDS011;26405;51.850;-2.246;2023-02-12T05:11:48;7.47;;;2.70;;
40717;SDS011;26405;51.850;-2.246;2023-02-12T05:14:13;6.72;;;2.50;;
40717;SDS011;26405;51.850;-2.246;2023-02-12T05:16:39;4.70;;;2.47;;
40717;SDS011;26405;51.850;-2.246;2023-02-12T05:19:04;6.18;;;2.78;;
40717;SDS011;26405;51.850;-2.246;2023-02-12T05:21:29;8.00;;;3.10;;
40717;SDS011;26405;51.850;-2.246;2023-02-12T05:23:55;5.13;;;2.53;;
40717;SDS011;26405;51.850;-2.246;2023-02-12T05:26:20;8.25;;;3.00;;
40717;SDS011;26405;51.850;-2.246;2023-02-12T05:28:46;4.05;;;2.60;;
40717;SDS011;26405;51.850;-2.246;2023-02-12T05:31:15;6.22;;;2.95;;
40717;SDS011;26405;51.850;-2.246;2023-02-12T05:33:44;6.80;;;2.75;;
40717;SDS011;26405;51.850;-2.246;2023-02-12T05:36:11;5.30;;;2.60;;
40717;SDS011;26405;51.850;-2.246;2023-02-12T05:38:37;7.38;;;2.97;;
40717;SDS011;26405;51.850;-2.246;2023-02-12T05:41:10;6.75;;;2.70;;
40717;SDS011;26405;51.850;-2.246;2023-02-12T05:43:36;5.82;;;2.70;;
40717;SDS011;26405;51.850;-2.246;2023-02-12T05:46:02;5.13;;;2.70;;
40717;SDS011;26405;51.850;-2.246;2023-02-12T05:48:28;3.58;;;2.40;;
40717;SDS011;26405;51.850;-2.246;2023-02-12T05:50:54;5.57;;;2.47;;
40717;SDS011;26405;51.850;-2.246;2023-02-12T05:53:19;4.68;;;2.30;;
40717;SDS011;26405;51.850;-2.246;2023-02-12T05:55:45;4.55;;;2.45;;
40717;SDS011;26405;51.850;-2.246;2023-02-12T05:58:10;3.65;;;2.30;;
40717;SDS011;26405;51.850;-2.246;2023-02-12T06:00:35;4.25;;;2.15;;
40717;SDS011;26405;51.850;-2.246;2023-02-12T06:03:01;6.70;;;2.55;;
40717;SDS011;26405;51.850;-2.246;2023-02-12T06:05:26;5.50;;;2.50;;
40717;SDS011;26405;51.850;-2.246;2023-02-12T06:07:51;3.83;;;2.40;;
40717;SDS011;26405;51.850;-2.246;2023-02-12T06:10:17;4.50;;;2.65;;
40717;SDS011;26405;51.850;-2.246;2023-02-12T06:12:42;7.18;;;2.70;;
40717;SDS011;26405;51.850;-2.246;2023-02-12T06:15:07;5.32;;;2.50;;
40717;SDS011;26405;51.850;-2.246;2023-02-12T06:17:33;8.48;;;3.03;;
40717;SDS011;26405;51.850;-2.246;2023-02-12T06:19:58;5.18;;;2.45;;
40717;SDS011;26405;51.850;-2.246;2023-02-12T06:22:24;4.57;;;2.40;;
40717;SDS011;26405;51.850;-2.246;2023-02-12T06:24:49;5.25;;;2.40;;
40717;SDS011;26405;51.850;-2.246;2023-02-12T06:27:14;4.20;;;2.50;;
40717;SDS011;26405;51.850;-2.246;2023-02-12T06:29:39;5.72;;;2.88;;
40717;SDS011;26405;51.850;-2.246;2023-02-12T06:32:05;5.88;;;2.70;;
40717;SDS011;26405;51.850;-2.246;2023-02-12T06:36:57;4.93;;;2.42;;
40717;SDS011;26405;51.850;-2.246;2023-02-12T06:39:22;4.32;;;2.50;;
40717;SDS011;26405;51.850;-2.246;2023-02-12T06:41:47;4.40;;;2.55;;
40717;SDS011;26405;51.850;-2.246;2023-02-12T06:44:13;5.20;;;2.33;;
40717;SDS011;26405;51.850;-2.246;2023-02-12T06:46:38;4.65;;;2.38;;
40717;SDS011;26405;51.850;-2.246;2023-02-12T06:49:04;6.10;;;2.53;;
40717;SDS011;26405;51.850;-2.246;2023-02-12T06:51:29;6.13;;;2.65;;
40717;SDS011;26405;51.850;-2.246;2023-02-12T06:53:55;6.75;;;2.70;;
40717;SDS011;26405;51.850;-2.246;2023-02-12T06:56:21;5.47;;;2.67;;
40717;SDS011;26405;51.850;-2.246;2023-02-12T06:58:50;5.60;;;2.50;;
40717;SDS011;26405;51.850;-2.246;2023-02-12T07:01:17;4.05;;;2.47;;
40717;SDS011;26405;51.850;-2.246;2023-02-12T07:03:43;5.38;;;2.40;;
40717;SDS011;26405;51.850;-2.246;2023-02-12T07:06:09;6.65;;;2.47;;
40717;SDS011;26405;51.850;-2.246;2023-02-12T07:08:34;6.47;;;2.70;;
40717;SDS011;26405;51.850;-2.246;2023-02-12T07:11:00;4.50;;;2.58;;
40717;SDS011;26405;51.850;-2.246;2023-02-12T07:13:25;3.38;;;2.40;;
40717;SDS011;26405;51.850;-2.246;2023-02-12T07:15:50;5.68;;;2.53;;
40717;SDS011;26405;51.850;-2.246;2023-02-12T07:18:16;6.65;;;2.65;;
40717;SDS011;26405;51.850;-2.246;2023-02-12T07:20:41;5.35;;;2.50;;
40717;SDS011;26405;51.850;-2.246;2023-02-12T07:23:08;8.20;;;3.00;;
40717;SDS011;26405;51.850;-2.246;2023-02-12T07:25:34;6.57;;;2.67;;
40717;SDS011;26405;51.850;-2.246;2023-02-12T07:27:59;6.60;;;2.90;;
40717;SDS011;26405;51.850;-2.246;2023-02-12T07:30:25;6.13;;;3.17;;
40717;SDS011;26405;51.850;-2.246;2023-02-12T07:32:50;6.50;;;3.10;;
40717;SDS011;26405;51.850;-2.246;2023-02-12T07:35:15;8.70;;;3.45;;
40717;SDS011;26405;51.850;-2.246;2023-02-12T07:37:41;7.00;;;3.90;;
40717;SDS011;26405;51.850;-2.246;2023-02-12T07:40:06;7.55;;;3.30;;
40717;SDS011;26405;51.850;-2.246;2023-02-12T07:42:31;7.07;;;3.22;;
40717;SDS011;26405;51.850;-2.246;2023-02-12T07:44:57;6.65;;;3.38;;
40717;SDS011;26405;51.850;-2.246;2023-02-12T07:47:22;8.73;;;3.78;;
40717;SDS011;26405;51.850;-2.246;2023-02-12T07:49:47;10.70;;;3.42;;
40717;SDS011;26405;51.850;-2.246;2023-02-12T07:52:12;5.53;;;2.85;;
40717;SDS011;26405;51.850;-2.246;2023-02-12T07:54:38;8.20;;;3.65;;
40717;SDS011;26405;51.850;-2.246;2023-02-12T07:57:03;8.82;;;3.35;;
40717;SDS011;26405;51.850;-2.246;2023-02-12T07:59:28;7.88;;;3.22;;
40717;SDS011;26405;51.850;-2.246;2023-02-12T08:01:54;6.68;;;3.47;;
40717;SDS011;26405;51.850;-2.246;2023-02-12T08:04:21;8.85;;;3.28;;
40717;SDS011;26405;51.850;-2.246;2023-02-12T08:06:48;6.60;;;3.30;;
40717;SDS011;26405;51.850;-2.246;2023-02-12T08:09:15;4.93;;;3.05;;
40717;SDS011;26405;51.850;-2.246;2023-02-12T08:11:40;5.35;;;3.13;;
40717;SDS011;26405;51.850;-2.246;2023-02-12T08:14:07;8.23;;;3.20;;
40717;SDS011;26405;51.850;-2.246;2023-02-12T08:16:35;9.13;;;3.47;;
40717;SDS011;26405;51.850;-2.246;2023-02-12T08:19:01;5.43;;;3.15;;
40717;SDS011;26405;51.850;-2.246;2023-02-12T08:21:26;6.55;;;3.22;;
40717;SDS011;26405;51.850;-2.246;2023-02-12T08:23:52;8.10;;;3.42;;
40717;SDS011;26405;51.850;-2.246;2023-02-12T08:26:28;5.63;;;3.17;;
40717;SDS011;26405;51.850;-2.246;2023-02-12T08:29:01;6.88;;;3.20;;
40717;SDS011;26405;51.850;-2.246;2023-02-12T08:31:28;9.23;;;3.28;;
40717;SDS011;26405;51.850;-2.246;2023-02-12T08:33:53;6.72;;;3.15;;
40717;SDS011;26405;51.850;-2.246;2023-02-12T08:36:20;6.45;;;3.40;;
40717;SDS011;26405;51.850;-2.246;2023-02-12T08:38:46;6.60;;;3.15;;
40717;SDS011;26405;51.850;-2.246;2023-02-12T08:41:16;7.43;;;3.33;;
40717;SDS011;26405;51.850;-2.246;2023-02-12T08:43:41;7.25;;;3.30;;
40717;SDS011;26405;51.850;-2.246;2023-02-12T08:46:11;6.93;;;3.38;;
40717;SDS011;26405;51.850;-2.246;2023-02-12T08:48:37;10.15;;;3.63;;
40717;SDS011;26405;51.850;-2.246;2023-02-12T08:51:06;6.07;;;3.15;;
40717;SDS011;26405;51.850;-2.246;2023-02-12T08:53:32;7.13;;;3.10;;
40717;SDS011;26405;51.850;-2.246;2023-02-12T08:55:57;6.30;;;3.38;;
40717;SDS011;26405;51.850;-2.246;2023-02-12T08:58:22;7.55;;;3.47;;
40717;SDS011;26405;51.850;-2.246;2023-02-12T09:00:47;6.43;;;3.20;;
40717;SDS011;26405;51.850;-2.246;2023-02-12T09:03:13;12.57;;;4.07;;
40717;SDS011;26405;51.850;-2.246;2023-02-12T09:05:41;8.57;;;3.60;;
40717;SDS011;26405;51.850;-2.246;2023-02-12T09:08:07;10.10;;;4.35;;
40717;SDS011;26405;51.850;-2.246;2023-02-12T09:10:32;8.27;;;3.90;;
40717;SDS011;26405;51.850;-2.246;2023-02-12T09:12:58;10.85;;;3.80;;
40717;SDS011;26405;51.850;-2.246;2023-02-12T09:15:23;9.60;;;4.00;;
40717;SDS011;26405;51.850;-2.246;2023-02-12T09:17:48;9.45;;;3.88;;
40717;SDS011;26405;51.850;-2.246;2023-02-12T09:20:14;7.05;;;3.50;;
40717;SDS011;26405;51.850;-2.246;2023-02-12T09:22:40;12.35;;;4.20;;
40717;SDS011;26405;51.850;-2.246;2023-02-12T09:25:05;8.95;;;3.70;;
40717;SDS011;26405;51.850;-2.246;2023-02-12T09:27:30;8.77;;;3.83;;
40717;SDS011;26405;51.850;-2.246;2023-02-12T09:29:56;7.80;;;3.70;;
40717;SDS011;26405;51.850;-2.246;2023-02-12T09:32:21;5.72;;;3.78;;
40717;SDS011;26405;51.850;-2.246;2023-02-12T09:34:46;9.23;;;4.15;;
40717;SDS011;26405;51.850;-2.246;2023-02-12T09:37:11;9.05;;;4.55;;
40717;SDS011;26405;51.850;-2.246;2023-02-12T09:39:37;11.25;;;4.00;;
40717;SDS011;26405;51.850;-2.246;2023-02-12T09:47:03;11.20;;;3.90;;
40717;SDS011;26405;51.850;-2.246;2023-02-12T09:52:16;6.82;;;3.50;;
40717;SDS011;26405;51.850;-2.246;2023-02-12T09:54:41;7.60;;;3.85;;
40717;SDS011;26405;51.850;-2.246;2023-02-12T10:00:00;8.73;;;3.85;;
40717;SDS011;26405;51.850;-2.246;2023-02-12T10:02:25;8.73;;;3.83;;
40717;SDS011;26405;51.850;-2.246;2023-02-12T10:04:51;9.93;;;4.07;;
40717;SDS011;26405;51.850;-2.246;2023-02-12T10:07:27;11.37;;;3.77;;
40717;SDS011;26405;51.850;-2.246;2023-02-12T10:10:05;9.20;;;3.97;;
40717;SDS011;26405;51.850;-2.246;2023-02-12T10:15:48;8.10;;;3.97;;
40717;SDS011;26405;51.850;-2.246;2023-02-12T10:21:04;10.25;;;4.25;;
40717;SDS011;26405;51.850;-2.246;2023-02-12T10:23:45;11.43;;;3.78;;
40717;SDS011;26405;51.850;-2.246;2023-02-12T10:26:21;7.20;;;3.80;;
40717;SDS011;26405;51.850;-2.246;2023-02-12T10:28:49;11.65;;;4.63;;
40717;SDS011;26405;51.850;-2.246;2023-02-12T10:33:52;12.25;;;4.90;;
40717;SDS011;26405;51.850;-2.246;2023-02-12T10:38:45;13.07;;;4.45;;
40717;SDS011;26405;51.850;-2.246;2023-02-12T10:41:12;13.60;;;4.40;;
40717;SDS011;26405;51.850;-2.246;2023-02-12T10:43:39;13.32;;;4.75;;
40717;SDS011;26405;51.850;-2.246;2023-02-12T10:46:05;11.05;;;4.53;;
40717;SDS011;26405;51.850;-2.246;2023-02-12T10:48:37;12.60;;;4.93;;
40717;SDS011;26405;51.850;-2.246;2023-02-12T10:53:48;9.00;;;4.47;;
40717;SDS011;26405;51.850;-2.246;2023-02-12T10:56:14;10.43;;;4.80;;
40717;SDS011;26405;51.850;-2.246;2023-02-12T11:03:46;9.60;;;4.93;;
40717;SDS011;26405;51.850;-2.246;2023-02-12T11:06:13;14.20;;;5.28;;
40717;SDS011;26405;51.850;-2.246;2023-02-12T11:08:39;9.95;;;4.78;;
40717;SDS011;26405;51.850;-2.246;2023-02-12T11:13:30;8.65;;;4.75;;
40717;SDS011;26405;51.850;-2.246;2023-02-12T11:15:55;10.63;;;4.75;;
40717;SDS011;26405;51.850;-2.246;2023-02-12T11:18:24;9.75;;;4.30;;
40717;SDS011;26405;51.850;-2.246;2023-02-12T11:20:52;11.73;;;4.80;;
40717;SDS011;26405;51.850;-2.246;2023-02-12T11:23:23;11.60;;;4.70;;
40717;SDS011;26405;51.850;-2.246;2023-02-12T11:25:56;11.55;;;4.82;;
40717;SDS011;26405;51.850;-2.246;2023-02-12T11:28:22;9.68;;;4.75;;
40717;SDS011;26405;51.850;-2.246;2023-02-12T11:30:48;11.55;;;4.60;;
40717;SDS011;26405;51.850;-2.246;2023-02-12T11:33:21;11.73;;;4.60;;
40717;SDS011;26405;51.850;-2.246;2023-02-12T11:35:51;8.88;;;4.60;;
40717;SDS011;26405;51.850;-2.246;2023-02-12T11:38:24;13.57;;;4.60;;
40717;SDS011;26405;51.850;-2.246;2023-02-12T11:40:50;11.05;;;4.95;;
40717;SDS011;26405;51.850;-2.246;2023-02-12T11:43:17;10.23;;;4.65;;
40717;SDS011;26405;51.850;-2.246;2023-02-12T11:48:18;10.43;;;4.40;;
40717;SDS011;26405;51.850;-2.246;2023-02-12T11:50:48;13.23;;;4.95;;
40717;SDS011;26405;51.850;-2.246;2023-02-12T11:53:19;10.27;;;4.70;;
40717;SDS011;26405;51.850;-2.246;2023-02-12T11:55:51;10.77;;;4.53;;
40717;SDS011;26405;51.850;-2.246;2023-02-12T11:58:21;11.25;;;4.90;;
40717;SDS011;26405;51.850;-2.246;2023-02-12T12:03:26;13.15;;;5.05;;
40717;SDS011;26405;51.850;-2.246;2023-02-12T12:05:54;10.73;;;4.45;;
40717;SDS011;26405;51.850;-2.246;2023-02-12T12:08:25;12.35;;;4.85;;
40717;SDS011;26405;51.850;-2.246;2023-02-12T12:11:03;12.50;;;5.50;;
40717;SDS011;26405;51.850;-2.246;2023-02-12T12:13:35;14.07;;;5.13;;
40717;SDS011;26405;51.850;-2.246;2023-02-12T12:16:08;12.77;;;5.30;;
40717;SDS011;26405;51.850;-2.246;2023-02-12T12:18:55;12.70;;;5.32;;
40717;SDS011;26405;51.850;-2.246;2023-02-12T12:21:44;12.60;;;5.30;;
40717;SDS011;26405;51.850;-2.246;2023-02-12T12:27:01;17.23;;;6.63;;
40717;SDS011;26405;51.850;-2.246;2023-02-12T12:29:37;13.85;;;5.35;;
40717;SDS011;26405;51.850;-2.246;2023-02-12T12:34:29;11.13;;;4.30;;
40717;SDS011;26405;51.850;-2.246;2023-02-12T12:37:08;12.93;;;4.57;;
40717;SDS011;26405;51.850;-2.246;2023-02-12T12:54:50;11.77;;;4.60;;
40717;SDS011;26405;51.850;-2.246;2023-02-12T12:57:25;11.65;;;4.68;;
40717;SDS011;26405;51.850;-2.246;2023-02-12T12:59:55;15.30;;;4.47;;
40717;SDS011;26405;51.850;-2.246;2023-02-12T13:08:09;11.75;;;4.93;;
40717;SDS011;26405;51.850;-2.246;2023-02-12T13:10:45;11.20;;;4.30;;
40717;SDS011;26405;51.850;-2.246;2023-02-12T13:18:12;11.30;;;4.32;;
40717;SDS011;26405;51.850;-2.246;2023-02-12T13:23:20;10.10;;;4.07;;
40717;SDS011;26405;51.850;-2.246;2023-02-12T13:28:46;9.57;;;4.70;;
40717;SDS011;26405;51.850;-2.246;2023-02-12T13:31:13;11.35;;;4.50;;
40717;SDS011;26405;51.850;-2.246;2023-02-12T13:33:46;9.05;;;4.10;;
40717;SDS011;26405;51.850;-2.246;2023-02-12T13:36:13;13.10;;;5.20;;
40717;SDS011;26405;51.850;-2.246;2023-02-12T13:38:54;10.98;;;4.63;;
40717;SDS011;26405;51.850;-2.246;2023-02-12T13:41:20;9.07;;;4.30;;
40717;SDS011;26405;51.850;-2.246;2023-02-12T13:49:24;12.13;;;5.43;;
40717;SDS011;26405;51.850;-2.246;2023-02-12T13:51:47;10.93;;;4.68;;
40717;SDS011;26405;51.850;-2.246;2023-02-12T14:01:51;14.90;;;6.20;;
40717;SDS011;26405;51.850;-2.246;2023-02-12T14:09:58;12.07;;;5.95;;
40717;SDS011;26405;51.850;-2.246;2023-02-12T14:14:50;11.27;;;5.50;;
40717;SDS011;26405;51.850;-2.246;2023-02-12T14:27:56;22.70;;;10.98;;
40717;SDS011;26405;51.850;-2.246;2023-02-12T14:30:35;17.00;;;7.43;;
40717;SDS011;26405;51.850;-2.246;2023-02-12T14:33:35;12.93;;;6.70;;
40717;SDS011;26405;51.850;-2.246;2023-02-12T14:36:14;13.40;;;6.28;;
40717;SDS011;26405;51.850;-2.246;2023-02-12T14:46:54;14.93;;;7.90;;
40717;SDS011;26405;51.850;-2.246;2023-02-12T14:49:22;15.20;;;7.50;;
40717;SDS011;26405;51.850;-2.246;2023-02-12T14:51:59;14.85;;;7.32;;
40717;SDS011;26405;51.850;-2.246;2023-02-12T14:57:48;14.68;;;7.03;;
40717;SDS011;26405;51.850;-2.246;2023-02-12T14:59:56;13.90;;;6.25;;
40717;SDS011;26405;51.850;-2.246;2023-02-12T15:02:24;12.85;;;6.68;;
40717;SDS011;26405;51.850;-2.246;2023-02-12T15:04:51;12.15;;;6.43;;
40717;SDS011;26405;51.850;-2.246;2023-02-12T15:07:22;13.93;;;6.97;;
40717;SDS011;26405;51.850;-2.246;2023-02-12T15:09:51;14.90;;;7.18;;
40717;SDS011;26405;51.850;-2.246;2023-02-12T15:12:18;13.95;;;6.85;;
40717;SDS011;26405;51.850;-2.246;2023-02-12T15:14:47;13.32;;;6.85;;
40717;SDS011;26405;51.850;-2.246;2023-02-12T15:17:16;14.35;;;7.28;;
40717;SDS011;26405;51.850;-2.246;2023-02-12T15:22:22;15.40;;;7.78;;
40717;SDS011;26405;51.850;-2.246;2023-02-12T15:24:48;16.05;;;7.53;;
40717;SDS011;26405;51.850;-2.246;2023-02-12T15:27:13;12.45;;;6.60;;
40717;SDS011;26405;51.850;-2.246;2023-02-12T15:29:40;16.25;;;7.75;;
40717;SDS011;26405;51.850;-2.246;2023-02-12T15:34:32;14.30;;;7.20;;
40717;SDS011;26405;51.850;-2.246;2023-02-12T15:37:00;14.77;;;7.38;;
40717;SDS011;26405;51.850;-2.246;2023-02-12T15:39:26;15.43;;;7.20;;
40717;SDS011;26405;51.850;-2.246;2023-02-12T15:41:52;14.30;;;7.13;;
40717;SDS011;26405;51.850;-2.246;2023-02-12T15:44:19;15.15;;;6.95;;
40717;SDS011;26405;51.850;-2.246;2023-02-12T15:46:55;15.75;;;7.22;;
40717;SDS011;26405;51.850;-2.246;2023-02-12T15:49:20;21.95;;;12.15;;
40717;SDS011;26405;51.850;-2.246;2023-02-12T15:51:48;18.52;;;9.77;;
40717;SDS011;26405;51.850;-2.246;2023-02-12T15:54:14;17.52;;;8.00;;
40717;SDS011;26405;51.850;-2.246;2023-02-12T15:56:42;16.00;;;7.50;;
40717;SDS011;26405;51.850;-2.246;2023-02-12T15:59:13;15.70;;;6.88;;
40717;SDS011;26405;51.850;-2.246;2023-02-12T16:01:40;14.50;;;7.60;;
40717;SDS011;26405;51.850;-2.246;2023-02-12T16:04:16;17.75;;;7.90;;
40717;SDS011;26405;51.850;-2.246;2023-02-12T16:06:41;14.95;;;7.25;;
40717;SDS011;26405;51.850;-2.246;2023-02-12T16:09:07;18.98;;;7.57;;
40717;SDS011;26405;51.850;-2.246;2023-02-12T16:11:33;16.20;;;8.38;;
40717;SDS011;26405;51.850;-2.246;2023-02-12T16:14:00;17.50;;;7.80;;
40717;SDS011;26405;51.850;-2.246;2023-02-12T16:16:30;17.38;;;8.95;;
40717;SDS011;26405;51.850;-2.246;2023-02-12T16:19:22;16.70;;;8.23;;
40717;SDS011;26405;51.850;-2.246;2023-02-12T16:21:53;18.88;;;9.80;;
40717;SDS011;26405;51.850;-2.246;2023-02-12T16:24:20;16.70;;;7.97;;
40717;SDS011;26405;51.850;-2.246;2023-02-12T16:26:46;20.95;;;11.35;;
40717;SDS011;26405;51.850;-2.246;2023-02-12T16:29:14;21.27;;;10.70;;
40717;SDS011;26405;51.850;-2.246;2023-02-12T16:31:44;23.85;;;13.27;;
40717;SDS011;26405;51.850;-2.246;2023-02-12T16:34:26;18.55;;;9.40;;
40717;SDS011;26405;51.850;-2.246;2023-02-12T16:36:51;14.32;;;7.07;;
40717;SDS011;26405;51.850;-2.246;2023-02-12T16:39:45;14.80;;;7.38;;
40717;SDS011;26405;51.850;-2.246;2023-02-12T16:42:01;14.98;;;7.25;;
40717;SDS011;26405;51.850;-2.246;2023-02-12T16:44:27;19.92;;;10.55;;
40717;SDS011;26405;51.850;-2.246;2023-02-12T16:46:56;14.82;;;7.10;;
40717;SDS011;26405;51.850;-2.246;2023-02-12T16:51:47;17.77;;;8.05;;
40717;SDS011;26405;51.850;-2.246;2023-02-12T16:54:29;18.67;;;8.73;;
40717;SDS011;26405;51.850;-2.246;2023-02-12T16:56:55;16.42;;;7.25;;
40717;SDS011;26405;51.850;-2.246;2023-02-12T16:59:20;14.35;;;6.72;;
40717;SDS011;26405;51.850;-2.246;2023-02-12T17:02:00;27.58;;;15.98;;
40717;SDS011;26405;51.850;-2.246;2023-02-12T17:04:25;19.83;;;10.77;;
40717;SDS011;26405;51.850;-2.246;2023-02-12T17:06:51;15.82;;;7.32;;
40717;SDS011;26405;51.850;-2.246;2023-02-12T17:09:16;18.58;;;8.98;;
40717;SDS011;26405;51.850;-2.246;2023-02-12T17:11:41;17.00;;;9.05;;
40717;SDS011;26405;51.850;-2.246;2023-02-12T17:14:13;22.27;;;11.27;;
40717;SDS011;26405;51.850;-2.246;2023-02-12T17:16:38;23.13;;;10.48;;
40717;SDS011;26405;51.850;-2.246;2023-02-12T17:19:03;17.58;;;8.00;;
40717;SDS011;26405;51.850;-2.246;2023-02-12T17:21:33;16.00;;;7.17;;
40717;SDS011;26405;51.850;-2.246;2023-02-12T17:24:19;18.05;;;8.85;;
40717;SDS011;26405;51.850;-2.246;2023-02-12T17:26:45;15.60;;;7.05;;